Terminal Aerodrome Forecast
Issued by NWS

Home | Current Version | Previous Version | Graphics & Text | Print | Product List | Glossary On
Versions: 1 2 3 4 5 6 7 8 9 10 11 12 13 14 15 16 17 18 19 20 21
000
FTUS43 KABR 251245 AAD
TAFPIR
TAF AMD
KPIR 251245Z 2513/2612 03006KT P6SM SCT005 OVC026
     FM251700 35006KT P6SM OVC030
     FM260100 33007KT P6SM BKN045 OVC100=

USA.gov is the U.S. government's official web portal to all federal, state and local government web resources and services.